createdAt,value
2018-06-11T00:00:54.626Z,11.17
2018-06-11T00:03:26.197Z,8.30
2018-06-11T00:05:57.745Z,9.03
2018-06-11T00:08:29.416Z,9.97
2018-06-11T00:11:00.954Z,11.30
2018-06-11T00:13:32.627Z,9.10
2018-06-11T00:16:04.299Z,9.43
2018-06-11T00:18:35.948Z,7.70
2018-06-11T00:21:07.473Z,8.47
2018-06-11T00:23:39.054Z,10.30
2018-06-11T00:26:10.656Z,10.97
2018-06-11T00:28:42.290Z,9.67
2018-06-11T00:31:14.001Z,8.33
2018-06-11T00:33:45.798Z,8.73
2018-06-11T00:36:17.541Z,10.13
2018-06-11T00:38:49.199Z,9.30
2018-06-11T00:41:20.849Z,8.07
2018-06-11T00:43:52.405Z,8.10
2018-06-11T00:46:23.974Z,7.97
2018-06-11T00:48:55.615Z,8.90
2018-06-11T00:51:27.143Z,9.43
2018-06-11T00:53:58.729Z,8.40
2018-06-11T00:56:30.386Z,8.00
2018-06-11T00:59:02.008Z,9.60
2018-06-11T01:01:33.669Z,8.17
2018-06-11T01:04:05.513Z,8.87
2018-06-11T01:06:37.329Z,10.73
2018-06-11T01:09:10.105Z,9.07
2018-06-11T01:11:41.757Z,8.80
2018-06-11T01:14:13.413Z,9.63
2018-06-11T01:16:45.021Z,11.07
2018-06-11T01:19:16.743Z,11.67
2018-06-11T01:21:48.493Z,8.13
2018-06-11T01:24:20.138Z,10.07
2018-06-11T01:26:51.638Z,10.90
2018-06-11T01:29:23.344Z,10.13
2018-06-11T01:31:54.840Z,9.73
2018-06-11T01:34:26.962Z,8.70
2018-06-11T01:36:58.739Z,9.67
2018-06-11T01:39:30.378Z,7.60
2018-06-11T01:42:02.038Z,10.83
2018-06-11T01:44:33.690Z,9.27
2018-06-11T01:47:05.412Z,8.53
2018-06-11T01:49:37.034Z,9.60
2018-06-11T01:52:08.609Z,10.13
2018-06-11T01:54:40.320Z,8.17
2018-06-11T01:57:11.989Z,9.93
2018-06-11T01:59:43.778Z,10.00
2018-06-11T02:02:15.252Z,7.67
2018-06-11T02:04:46.940Z,8.40
2018-06-11T02:07:18.554Z,8.43
2018-06-11T02:09:50.219Z,8.40
2018-06-11T02:12:21.898Z,8.07
2018-06-11T02:14:53.489Z,9.07
2018-06-11T02:17:25.515Z,7.77
2018-06-11T02:19:57.189Z,8.37
2018-06-11T02:22:28.773Z,8.77
2018-06-11T02:25:00.428Z,10.10
2018-06-11T02:27:32.027Z,11.70
2018-06-11T02:30:03.650Z,9.50
2018-06-11T02:32:35.292Z,10.10
2018-06-11T02:35:07.150Z,10.40
2018-06-11T02:37:39.058Z,8.53
2018-06-11T02:40:10.882Z,9.07
2018-06-11T02:42:42.486Z,12.20
2018-06-11T02:45:14.063Z,10.53
2018-06-11T02:47:45.674Z,8.80
2018-06-11T02:50:17.299Z,9.70
2018-06-11T02:52:48.784Z,9.27
2018-06-11T02:55:20.493Z,11.70
2018-06-11T02:57:52.121Z,10.27
2018-06-11T03:00:23.798Z,9.27
2018-06-11T03:02:55.333Z,8.43
2018-06-11T03:05:27.013Z,7.77
2018-06-11T03:07:58.662Z,8.73
2018-06-11T03:10:30.308Z,8.30
2018-06-11T03:13:02.096Z,8.80
2018-06-11T03:15:33.743Z,10.47
2018-06-11T03:18:05.493Z,9.53
2018-06-11T03:20:37.068Z,7.37
2018-06-11T03:23:08.551Z,9.27
2018-06-11T03:25:40.322Z,12.70
2018-06-11T03:28:11.903Z,11.03
2018-06-11T03:30:43.460Z,9.00
2018-06-11T03:33:14.972Z,11.90
2018-06-11T03:35:46.711Z,9.30
2018-06-11T03:38:18.425Z,8.73
2018-06-11T03:40:50.205Z,9.80
2018-06-11T03:43:21.738Z,11.23
2018-06-11T03:45:53.554Z,11.13
2018-06-11T03:48:25.267Z,9.77
2018-06-11T03:50:56.845Z,10.60
2018-06-11T03:53:28.327Z,13.50
2018-06-11T03:55:59.994Z,10.90
2018-06-11T03:58:31.553Z,9.73
2018-06-11T04:01:03.199Z,8.97
2018-06-11T04:03:34.783Z,12.10
2018-06-11T04:06:06.462Z,10.33
2018-06-11T04:08:38.109Z,10.90
2018-06-11T04:11:09.895Z,8.63
2018-06-11T04:13:41.554Z,8.07
2018-06-11T04:16:13.391Z,8.13
2018-06-11T04:18:44.978Z,9.00
2018-06-11T04:21:16.697Z,9.77
2018-06-11T04:23:48.457Z,8.83
2018-06-11T04:26:19.938Z,9.07
2018-06-11T04:28:51.772Z,10.30
2018-06-11T04:31:23.355Z,10.23
2018-06-11T04:33:54.825Z,12.40
2018-06-11T04:36:26.473Z,8.23
2018-06-11T04:38:58.036Z,8.97
2018-06-11T04:41:29.840Z,8.40
2018-06-11T04:44:01.390Z,8.20
2018-06-11T04:46:33.061Z,8.37
2018-06-11T04:49:04.599Z,9.30
2018-06-11T04:51:36.370Z,7.10
2018-06-11T04:54:07.907Z,7.23
2018-06-11T04:56:39.703Z,6.60
2018-06-11T04:59:11.340Z,6.60
2018-06-11T05:01:42.996Z,6.23
2018-06-11T05:04:14.501Z,5.30
2018-06-11T05:06:46.136Z,5.53
2018-06-11T05:09:17.600Z,7.03
2018-06-11T05:11:49.309Z,5.27
2018-06-11T05:14:20.856Z,8.40
2018-06-11T05:16:52.512Z,6.10
2018-06-11T05:19:24.192Z,6.43
2018-06-11T05:21:55.762Z,5.80
2018-06-11T05:24:27.279Z,9.07
2018-06-11T05:26:58.954Z,15.57
2018-06-11T05:29:30.121Z,11.17
2018-06-11T05:32:01.674Z,13.57
2018-06-11T05:34:33.326Z,14.10
2018-06-11T05:37:05.030Z,6.83
2018-06-11T05:39:36.753Z,9.77
2018-06-11T05:42:08.798Z,16.47
2018-06-11T05:44:40.482Z,17.00
2018-06-11T05:47:12.153Z,13.37
2018-06-11T05:49:43.978Z,13.07
2018-06-11T05:52:15.678Z,12.73
2018-06-11T05:54:47.537Z,13.03
2018-06-11T05:57:19.292Z,11.10
2018-06-11T05:59:50.953Z,9.77
2018-06-11T06:02:22.877Z,13.97
2018-06-11T06:04:54.621Z,14.57
2018-06-11T06:07:26.274Z,15.87
2018-06-11T06:09:57.825Z,15.03
2018-06-11T06:12:29.369Z,12.10
2018-06-11T06:15:01.137Z,9.00
2018-06-11T06:17:32.798Z,6.47
2018-06-11T06:20:04.552Z,6.33
2018-06-11T06:22:36.215Z,14.27
2018-06-11T06:25:07.769Z,11.07
2018-06-11T06:27:39.422Z,7.30
2018-06-11T06:30:10.974Z,8.17
2018-06-11T06:32:42.679Z,9.10
2018-06-11T06:35:14.392Z,7.37
2018-06-11T06:37:46.106Z,12.63
2018-06-11T06:40:17.722Z,10.57
2018-06-11T06:42:49.354Z,9.37
2018-06-11T06:45:21.105Z,9.93
2018-06-11T06:47:52.689Z,7.80
2018-06-11T06:50:24.381Z,6.37
2018-06-11T06:52:55.998Z,9.07
2018-06-11T06:55:27.530Z,7.70
2018-06-11T06:57:59.198Z,5.13
2018-06-11T07:00:30.791Z,6.80
2018-06-11T07:03:02.389Z,6.07
2018-06-11T07:05:34.053Z,4.97
2018-06-11T07:08:05.681Z,4.60
2018-06-11T07:10:37.447Z,4.83
2018-06-11T07:13:09.193Z,4.70
2018-06-11T07:15:40.918Z,5.57
2018-06-11T07:18:12.472Z,4.70
2018-06-11T07:20:44.102Z,4.97
2018-06-11T07:23:15.674Z,11.60
2018-06-11T07:25:47.312Z,5.90
2018-06-11T07:28:18.899Z,5.80
2018-06-11T07:30:50.621Z,6.53
2018-06-11T07:33:22.205Z,5.37
2018-06-11T07:35:53.868Z,12.67
2018-06-11T07:38:25.697Z,9.83
2018-06-11T07:40:57.323Z,10.77
2018-06-11T07:43:28.890Z,9.53
2018-06-11T07:46:00.571Z,7.93
2018-06-11T07:48:32.260Z,7.73
2018-06-11T07:51:03.888Z,7.23
2018-06-11T07:53:35.636Z,10.27
2018-06-11T07:56:07.495Z,7.33
2018-06-11T07:58:39.086Z,6.63
2018-06-11T08:01:10.664Z,7.20
2018-06-11T08:03:42.468Z,5.33
2018-06-11T08:06:14.005Z,6.10
2018-06-11T08:08:45.569Z,5.50
2018-06-11T08:11:17.236Z,5.83
2018-06-11T08:13:48.895Z,10.97
2018-06-11T08:16:20.469Z,9.70
2018-06-11T08:18:51.993Z,6.10
2018-06-11T08:21:23.558Z,8.40
2018-06-11T08:23:55.213Z,7.13
2018-06-11T08:26:26.893Z,6.30
2018-06-11T08:28:58.521Z,8.97
2018-06-11T08:31:30.178Z,8.13
2018-06-11T08:34:01.843Z,7.00
2018-06-11T08:36:33.493Z,6.53
2018-06-11T08:39:07.045Z,9.10
2018-06-11T08:41:38.753Z,7.07
2018-06-11T08:44:10.325Z,5.80
2018-06-11T08:46:42.079Z,5.13
2018-06-11T08:49:13.654Z,5.37
2018-06-11T08:51:45.386Z,6.33
2018-06-11T08:54:17.037Z,4.97
2018-06-11T08:56:48.650Z,5.73
2018-06-11T08:59:20.604Z,8.33
2018-06-11T09:01:52.349Z,7.37
2018-06-11T09:04:24.273Z,11.00
2018-06-11T09:06:56.034Z,8.40
2018-06-11T09:09:27.618Z,6.57
2018-06-11T09:11:59.235Z,5.30
2018-06-11T09:14:30.900Z,6.27
2018-06-11T09:17:02.583Z,5.90
2018-06-11T09:19:34.002Z,8.50
2018-06-11T09:22:05.660Z,11.07
2018-06-11T09:24:37.212Z,11.20
2018-06-11T09:27:08.976Z,11.03
2018-06-11T09:29:40.530Z,8.73
2018-06-11T09:32:12.286Z,10.17
2018-06-11T09:34:43.869Z,9.07
2018-06-11T09:37:15.613Z,6.93
2018-06-11T09:39:47.254Z,8.17
2018-06-11T09:42:18.837Z,10.10
2018-06-11T09:44:50.665Z,8.97
2018-06-11T09:47:21.796Z,10.57
2018-06-11T09:49:53.201Z,10.10
2018-06-11T09:52:24.813Z,9.50
2018-06-11T09:54:56.364Z,10.27
2018-06-11T09:57:28.097Z,10.57
2018-06-11T09:59:59.832Z,10.73
2018-06-11T10:02:31.625Z,10.47
2018-06-11T10:05:03.232Z,10.77
2018-06-11T10:07:34.857Z,10.27
2018-06-11T10:10:06.647Z,8.47
2018-06-11T10:12:38.169Z,7.87
2018-06-11T10:15:09.725Z,6.53
2018-06-11T10:17:41.380Z,6.43
2018-06-11T10:20:12.971Z,7.60
2018-06-11T10:22:44.619Z,7.60
2018-06-11T10:25:16.172Z,7.90
2018-06-11T10:27:47.686Z,4.97
2018-06-11T10:30:19.368Z,5.20
2018-06-11T10:32:50.942Z,5.67
2018-06-11T10:35:22.458Z,4.67
2018-06-11T10:37:54.133Z,5.33
2018-06-11T10:40:25.885Z,4.70
2018-06-11T10:42:57.548Z,7.73
2018-06-11T10:45:29.160Z,6.40
2018-06-11T10:48:00.786Z,9.47
2018-06-11T10:50:32.527Z,5.67
2018-06-11T10:53:03.627Z,5.30
2018-06-11T10:55:35.636Z,4.37
2018-06-11T10:58:07.373Z,4.37
2018-06-11T11:00:39.387Z,4.43
2018-06-11T11:03:11.113Z,4.07
2018-06-11T11:05:43.109Z,2.90
2018-06-11T11:08:15.336Z,3.30
2018-06-11T11:10:47.468Z,5.00
2018-06-11T11:13:19.333Z,4.43
2018-06-11T11:15:50.941Z,4.30
2018-06-11T11:18:22.492Z,3.73
2018-06-11T11:20:54.070Z,3.77
2018-06-11T11:23:25.680Z,5.17
2018-06-11T11:25:57.357Z,4.17
2018-06-11T11:28:28.920Z,7.03
2018-06-11T11:31:00.478Z,7.23
2018-06-11T11:33:32.241Z,7.10
2018-06-11T11:36:04.023Z,4.87
2018-06-11T11:38:35.628Z,7.60
2018-06-11T11:41:07.281Z,6.27
2018-06-11T11:43:38.931Z,5.40
2018-06-11T11:46:10.504Z,3.87
2018-06-11T11:48:42.176Z,3.40
2018-06-11T11:51:13.915Z,4.10
2018-06-11T11:53:45.670Z,5.87
2018-06-11T11:56:17.355Z,3.90
2018-06-11T11:58:49.000Z,5.30
2018-06-11T12:01:20.646Z,4.10
2018-06-11T12:03:52.207Z,4.63
2018-06-11T12:06:23.856Z,2.70
2018-06-11T12:08:55.385Z,5.37
2018-06-11T12:11:27.044Z,7.60
2018-06-11T12:13:58.809Z,4.97
2018-06-11T12:16:30.388Z,5.73
2018-06-11T12:19:02.100Z,3.77
2018-06-11T12:21:36.372Z,6.73
2018-06-11T12:24:17.265Z,6.00
2018-06-11T12:26:56.130Z,6.27
2018-06-11T12:29:33.611Z,3.77
2018-06-11T12:32:05.917Z,3.27
2018-06-11T12:34:37.550Z,3.17
2018-06-11T12:37:09.145Z,4.13
2018-06-11T12:39:40.824Z,4.43
2018-06-11T12:42:12.546Z,6.60
2018-06-11T12:44:44.180Z,3.47
2018-06-11T12:47:15.773Z,5.10
2018-06-11T12:49:47.397Z,4.77
2018-06-11T12:52:19.052Z,6.03
2018-06-11T12:54:50.639Z,6.17
2018-06-11T12:57:22.253Z,4.33
2018-06-11T12:59:53.824Z,5.67
2018-06-11T13:02:25.483Z,5.73
2018-06-11T13:04:57.133Z,4.43
2018-06-11T13:07:28.888Z,4.10
2018-06-11T13:10:00.648Z,6.17
2018-06-11T13:12:32.433Z,4.53
2018-06-11T13:15:04.074Z,5.83
2018-06-11T13:17:35.643Z,4.40
2018-06-11T13:20:07.178Z,6.03
2018-06-11T13:22:38.814Z,4.23
2018-06-11T13:25:10.488Z,4.77
2018-06-11T13:27:42.067Z,5.10
2018-06-11T13:30:13.860Z,3.80
2018-06-11T13:32:45.513Z,4.50
2018-06-11T13:35:17.114Z,2.90
2018-06-11T13:37:48.762Z,3.23
2018-06-11T13:40:20.340Z,2.00
2018-06-11T13:42:52.033Z,1.70
2018-06-11T13:45:23.664Z,2.50
2018-06-11T13:47:55.389Z,6.37
2018-06-11T13:50:27.055Z,3.40
2018-06-11T13:52:58.598Z,5.10
2018-06-11T13:55:30.258Z,3.77
2018-06-11T13:58:02.242Z,2.60
2018-06-11T14:00:33.947Z,5.43
2018-06-11T14:03:05.854Z,5.23
2018-06-11T14:05:37.441Z,5.10
2018-06-11T14:08:09.197Z,5.53
2018-06-11T14:10:40.846Z,5.57
2018-06-11T14:13:12.608Z,5.07
2018-06-11T14:15:44.240Z,3.70
2018-06-11T14:18:15.901Z,4.07
2018-06-11T14:20:47.542Z,2.53
2018-06-11T14:23:19.026Z,2.10
2018-06-11T14:25:50.680Z,2.30
2018-06-11T14:28:22.438Z,2.07
2018-06-11T14:30:54.006Z,2.50
2018-06-11T14:33:25.722Z,3.20
2018-06-11T14:35:57.369Z,3.10
2018-06-11T14:38:28.930Z,1.70
2018-06-11T14:41:00.659Z,6.00
2018-06-11T14:43:32.274Z,4.00
2018-06-11T14:46:03.921Z,4.17
2018-06-11T14:48:35.612Z,3.40
2018-06-11T14:51:07.350Z,5.63
2018-06-11T14:53:39.010Z,3.40
2018-06-11T14:56:10.617Z,2.97
2018-06-11T14:58:42.290Z,2.63
2018-06-11T15:01:13.905Z,2.47
2018-06-11T15:03:45.648Z,4.57
2018-06-11T15:06:17.357Z,2.30
2018-06-11T15:08:48.928Z,2.33
2018-06-11T15:11:20.584Z,5.53
2018-06-11T15:13:52.528Z,4.20
2018-06-11T15:16:24.342Z,4.90
2018-06-11T15:18:56.253Z,6.83
2018-06-11T15:21:27.902Z,7.60
2018-06-11T15:23:59.461Z,9.37
2018-06-11T15:26:31.190Z,10.50
2018-06-11T15:29:02.889Z,8.20
2018-06-11T15:31:34.440Z,9.40
2018-06-11T15:34:06.144Z,9.00
2018-06-11T15:36:37.672Z,11.73
2018-06-11T15:39:10.128Z,9.87
2018-06-11T15:41:41.682Z,15.20
2018-06-11T15:44:13.367Z,12.17
2018-06-11T15:46:44.973Z,10.63
2018-06-11T15:49:16.649Z,7.80
2018-06-11T15:51:48.210Z,7.30
2018-06-11T15:54:19.759Z,12.97
2018-06-11T15:56:51.110Z,13.17
2018-06-11T15:59:22.586Z,11.60
2018-06-11T16:01:54.311Z,14.33
2018-06-11T16:04:25.992Z,13.93
2018-06-11T16:06:57.557Z,13.60
2018-06-11T16:09:29.444Z,17.13
2018-06-11T16:12:01.621Z,17.90
2018-06-11T16:14:33.476Z,22.40
2018-06-11T16:17:05.331Z,15.07
2018-06-11T16:19:37.041Z,12.53
2018-06-11T16:22:08.797Z,19.17
2018-06-11T16:24:40.471Z,13.60
2018-06-11T16:27:12.118Z,13.63
2018-06-11T16:29:43.663Z,11.67
2018-06-11T16:32:15.236Z,12.63
2018-06-11T16:34:46.774Z,16.47
2018-06-11T16:37:18.429Z,9.37
2018-06-11T16:39:50.083Z,12.43
2018-06-11T16:42:21.243Z,12.67
2018-06-11T16:44:52.593Z,9.13
2018-06-11T16:47:24.339Z,10.23
2018-06-11T16:49:55.452Z,10.93
2018-06-11T16:52:27.033Z,11.33
2018-06-11T16:54:58.581Z,9.23
2018-06-11T16:57:30.284Z,7.97
2018-06-11T17:00:02.186Z,9.77
2018-06-11T17:02:33.917Z,13.90
2018-06-11T17:05:05.730Z,10.40
2018-06-11T17:07:37.313Z,14.03
2018-06-11T17:10:08.965Z,15.40
2018-06-11T17:12:40.590Z,17.40
2018-06-11T17:15:12.294Z,15.80
2018-06-11T17:17:44.014Z,12.90
2018-06-11T17:20:15.880Z,11.07
2018-06-11T17:22:47.831Z,8.90
2018-06-11T17:25:19.633Z,16.37
2018-06-11T17:27:51.341Z,15.27
2018-06-11T17:30:22.910Z,15.10
2018-06-11T17:32:54.602Z,11.87
2018-06-11T17:35:26.309Z,10.17
2018-06-11T17:37:57.958Z,11.33
2018-06-11T17:40:29.636Z,12.57
2018-06-11T17:43:01.387Z,17.50
2018-06-11T17:45:32.979Z,16.63
2018-06-11T17:48:04.769Z,10.87
2018-06-11T17:50:39.325Z,11.27
2018-06-11T17:53:10.811Z,8.37
2018-06-11T17:55:42.550Z,15.23
2018-06-11T17:58:14.119Z,10.50
2018-06-11T18:00:45.657Z,8.87
2018-06-11T18:03:17.225Z,7.37
2018-06-11T18:05:48.765Z,17.87
2018-06-11T18:08:20.407Z,7.67
2018-06-11T18:10:52.124Z,7.17
2018-06-11T18:13:23.821Z,6.13
2018-06-11T18:15:55.367Z,7.57
2018-06-11T18:18:27.046Z,7.20
2018-06-11T18:20:58.761Z,10.60
2018-06-11T18:23:30.448Z,20.30
2018-06-11T18:26:02.022Z,14.90
2018-06-11T18:28:33.766Z,11.20
2018-06-11T18:31:05.521Z,8.57
2018-06-11T18:33:37.189Z,11.67
2018-06-11T18:36:08.761Z,11.90
2018-06-11T18:38:40.391Z,12.43
2018-06-11T18:41:12.046Z,18.63
2018-06-11T18:43:43.597Z,22.33
2018-06-11T18:46:15.273Z,12.47
2018-06-11T18:48:46.860Z,13.33
2018-06-11T18:51:18.580Z,14.40
2018-06-11T18:53:50.237Z,15.47
2018-06-11T18:56:21.785Z,20.63
2018-06-11T18:58:53.381Z,13.43
2018-06-11T19:01:25.053Z,19.67
2018-06-11T19:03:56.680Z,16.87
2018-06-11T19:06:28.331Z,17.50
2018-06-11T19:09:00.165Z,16.20
2018-06-11T19:11:31.338Z,17.20
2018-06-11T19:14:02.978Z,14.50
2018-06-11T19:16:34.633Z,14.37
2018-06-11T19:19:05.813Z,9.60
2018-06-11T19:21:37.493Z,9.53
2018-06-11T19:24:09.262Z,9.97
2018-06-11T19:26:40.881Z,11.43
2018-06-11T19:29:12.638Z,10.37
2018-06-11T19:31:44.574Z,10.10
2018-06-11T19:34:16.523Z,9.97
2018-06-11T19:36:48.215Z,7.43
2018-06-11T19:39:20.044Z,10.67
2018-06-11T19:41:51.705Z,9.30
2018-06-11T19:44:23.254Z,6.53
2018-06-11T19:46:54.917Z,6.20
2018-06-11T19:49:26.453Z,6.17
2018-06-11T19:51:58.115Z,6.20
2018-06-11T19:54:29.712Z,6.70
2018-06-11T19:57:01.434Z,8.33
2018-06-11T19:59:33.010Z,3.77
2018-06-11T20:02:05.050Z,6.03
2018-06-11T20:04:36.809Z,7.77
2018-06-11T20:07:08.418Z,5.83
2018-06-11T20:09:40.044Z,10.27
2018-06-11T20:12:11.750Z,5.13
2018-06-11T20:14:43.370Z,4.43
2018-06-11T20:17:14.980Z,4.93
2018-06-11T20:19:46.649Z,6.37
2018-06-11T20:22:18.248Z,6.40
2018-06-11T20:24:50.005Z,2.70
2018-06-11T20:27:21.736Z,2.17
2018-06-11T20:29:53.486Z,1.10
2018-06-11T20:32:25.331Z,0.37
2018-06-11T20:34:56.993Z,1.10
2018-06-11T20:37:28.581Z,6.17
2018-06-11T20:40:00.395Z,4.90
2018-06-11T20:42:32.117Z,3.33
2018-06-11T20:45:03.850Z,2.40
2018-06-11T20:47:35.492Z,2.60
2018-06-11T20:50:07.174Z,2.63
2018-06-11T20:52:38.785Z,7.30
2018-06-11T20:55:10.661Z,7.67
2018-06-11T20:57:42.233Z,4.60
2018-06-11T21:00:13.869Z,7.73
2018-06-11T21:02:45.536Z,10.40
2018-06-11T21:05:17.337Z,6.43
2018-06-11T21:07:49.105Z,10.47
2018-06-11T21:10:20.808Z,7.63
2018-06-11T21:12:52.463Z,10.37
2018-06-11T21:15:24.140Z,5.37
2018-06-11T21:17:55.873Z,7.10
2018-06-11T21:20:27.595Z,8.27
2018-06-11T21:22:59.210Z,9.57
2018-06-11T21:25:30.937Z,7.17
2018-06-11T21:28:02.914Z,6.57
2018-06-11T21:30:34.591Z,7.40
2018-06-11T21:33:06.221Z,6.97
2018-06-11T21:35:37.882Z,5.50
2018-06-11T21:38:09.532Z,6.37
2018-06-11T21:40:41.088Z,6.83
2018-06-11T21:43:12.668Z,7.03
2018-06-11T21:45:44.304Z,6.73
2018-06-11T21:48:16.158Z,6.47
2018-06-11T21:50:47.824Z,7.07
2018-06-11T21:53:19.409Z,7.60
2018-06-11T21:55:51.085Z,6.17
2018-06-11T21:58:22.719Z,6.40
2018-06-11T22:00:54.391Z,6.67
2018-06-11T22:03:26.111Z,9.33
2018-06-11T22:05:57.789Z,6.70
2018-06-11T22:08:29.332Z,9.37
2018-06-11T22:11:00.899Z,7.97
2018-06-11T22:13:32.509Z,7.03
2018-06-11T22:16:04.076Z,8.30
2018-06-11T22:18:35.738Z,11.23
2018-06-11T22:21:07.393Z,11.03
2018-06-11T22:23:38.933Z,7.47
2018-06-11T22:26:10.608Z,8.90
2018-06-11T22:28:42.177Z,5.70
2018-06-11T22:31:14.011Z,6.63
2018-06-11T22:33:46.076Z,6.97
2018-06-11T22:36:18.033Z,9.07
2018-06-11T22:38:49.790Z,8.07
2018-06-11T22:41:21.498Z,5.60
2018-06-11T22:43:53.108Z,8.00
2018-06-11T22:46:24.865Z,7.17
2018-06-11T22:48:56.405Z,5.13
2018-06-11T22:51:28.081Z,4.60
2018-06-11T22:53:59.801Z,7.73
2018-06-11T22:56:31.459Z,5.37
2018-06-11T22:59:03.259Z,4.70
2018-06-11T23:01:34.916Z,6.20
2018-06-11T23:04:06.594Z,5.10
2018-06-11T23:06:38.244Z,6.13
2018-06-11T23:09:10.186Z,5.17
2018-06-11T23:11:41.846Z,5.67
2018-06-11T23:14:13.500Z,4.87
2018-06-11T23:16:45.173Z,5.47
2018-06-11T23:19:16.747Z,4.80
2018-06-11T23:21:48.562Z,4.00
2018-06-11T23:24:20.225Z,4.50
2018-06-11T23:26:51.988Z,6.47
2018-06-11T23:29:23.654Z,7.00
2018-06-11T23:31:55.221Z,6.30
2018-06-11T23:34:26.371Z,7.53
2018-06-11T23:36:57.896Z,5.20
2018-06-11T23:39:29.759Z,4.70
2018-06-11T23:42:01.333Z,4.90
2018-06-11T23:44:32.973Z,5.60
2018-06-11T23:47:04.549Z,6.73
2018-06-11T23:49:36.064Z,3.80
2018-06-11T23:52:07.735Z,5.07
2018-06-11T23:54:39.319Z,4.60
2018-06-11T23:57:11.051Z,5.23
2018-06-11T23:59:42.625Z,5.73
